sensor_id;sensor_type;location;lat;lon;timestamp;temperature;humidity
13458;DHT22;6801;53.018;11.560;2023-04-25T00:01:09;11.10;64.50
13458;DHT22;6801;53.018;11.560;2023-04-25T00:03:38;11.10;64.50
13458;DHT22;6801;53.018;11.560;2023-04-25T00:06:05;11.10;64.70
13458;DHT22;6801;53.018;11.560;2023-04-25T00:08:34;11.10;64.90
13458;DHT22;6801;53.018;11.560;2023-04-25T00:11:01;11.00;64.80
13458;DHT22;6801;53.018;11.560;2023-04-25T00:13:28;11.00;65.00
13458;DHT22;6801;53.018;11.560;2023-04-25T00:15:55;11.00;65.00
13458;DHT22;6801;53.018;11.560;2023-04-25T00:18:24;11.00;65.00
13458;DHT22;6801;53.018;11.560;2023-04-25T00:20:51;11.00;65.10
13458;DHT22;6801;53.018;11.560;2023-04-25T00:23:18;11.00;65.30
13458;DHT22;6801;53.018;11.560;2023-04-25T00:25:47;11.00;65.20
13458;DHT22;6801;53.018;11.560;2023-04-25T00:28:15;11.00;65.30
13458;DHT22;6801;53.018;11.560;2023-04-25T00:30:43;11.00;65.40
13458;DHT22;6801;53.018;11.560;2023-04-25T00:33:10;10.90;65.50
13458;DHT22;6801;53.018;11.560;2023-04-25T00:35:37;10.90;65.60
13458;DHT22;6801;53.018;11.560;2023-04-25T00:38:04;10.80;65.70
13458;DHT22;6801;53.018;11.560;2023-04-25T00:40:31;10.90;65.90
13458;DHT22;6801;53.018;11.560;2023-04-25T00:43:00;10.80;65.80
13458;DHT22;6801;53.018;11.560;2023-04-25T00:45:28;10.80;65.90
13458;DHT22;6801;53.018;11.560;2023-04-25T00:47:56;10.80;65.90
13458;DHT22;6801;53.018;11.560;2023-04-25T00:50:23;10.80;65.90
13458;DHT22;6801;53.018;11.560;2023-04-25T00:52:50;10.70;66.00
13458;DHT22;6801;53.018;11.560;2023-04-25T00:55:17;10.70;66.00
13458;DHT22;6801;53.018;11.560;2023-04-25T00:57:44;10.70;66.10
13458;DHT22;6801;53.018;11.560;2023-04-25T01:00:14;10.70;66.10
13458;DHT22;6801;53.018;11.560;2023-04-25T01:02:41;10.60;66.20
13458;DHT22;6801;53.018;11.560;2023-04-25T01:05:09;10.60;66.20
13458;DHT22;6801;53.018;11.560;2023-04-25T01:07:35;10.60;66.20
13458;DHT22;6801;53.018;11.560;2023-04-25T01:10:03;10.60;66.30
13458;DHT22;6801;53.018;11.560;2023-04-25T01:12:31;10.60;66.20
13458;DHT22;6801;53.018;11.560;2023-04-25T01:14:59;10.60;66.20
13458;DHT22;6801;53.018;11.560;2023-04-25T01:17:27;10.60;66.30
13458;DHT22;6801;53.018;11.560;2023-04-25T01:19:54;10.60;66.40
13458;DHT22;6801;53.018;11.560;2023-04-25T01:22:23;10.60;66.40
13458;DHT22;6801;53.018;11.560;2023-04-25T01:24:51;10.50;66.30
13458;DHT22;6801;53.018;11.560;2023-04-25T01:27:18;10.60;66.40
13458;DHT22;6801;53.018;11.560;2023-04-25T01:29:46;10.60;66.40
13458;DHT22;6801;53.018;11.560;2023-04-25T01:32:14;10.50;66.40
13458;DHT22;6801;53.018;11.560;2023-04-25T01:34:41;10.60;66.40
13458;DHT22;6801;53.018;11.560;2023-04-25T01:37:08;10.60;66.50
13458;DHT22;6801;53.018;11.560;2023-04-25T01:39:36;10.50;66.40
13458;DHT22;6801;53.018;11.560;2023-04-25T01:42:03;10.50;66.50
13458;DHT22;6801;53.018;11.560;2023-04-25T01:44:30;10.50;66.50
13458;DHT22;6801;53.018;11.560;2023-04-25T01:46:57;10.50;66.50
13458;DHT22;6801;53.018;11.560;2023-04-25T01:49:25;10.50;66.40
13458;DHT22;6801;53.018;11.560;2023-04-25T01:51:52;10.50;66.40
13458;DHT22;6801;53.018;11.560;2023-04-25T01:54:20;10.50;66.40
13458;DHT22;6801;53.018;11.560;2023-04-25T01:56:51;10.50;66.30
13458;DHT22;6801;53.018;11.560;2023-04-25T01:59:20;10.50;66.40
13458;DHT22;6801;53.018;11.560;2023-04-25T02:02:15;10.50;66.40
13458;DHT22;6801;53.018;11.560;2023-04-25T02:04:43;10.50;66.50
13458;DHT22;6801;53.018;11.560;2023-04-25T02:07:10;10.40;66.50
13458;DHT22;6801;53.018;11.560;2023-04-25T02:09:46;10.50;66.60
13458;DHT22;6801;53.018;11.560;2023-04-25T02:12:14;10.40;66.40
13458;DHT22;6801;53.018;11.560;2023-04-25T02:15:00;10.50;66.40
13458;DHT22;6801;53.018;11.560;2023-04-25T02:17:36;10.50;66.20
13458;DHT22;6801;53.018;11.560;2023-04-25T02:20:05;10.50;66.40
13458;DHT22;6801;53.018;11.560;2023-04-25T02:22:33;10.50;66.50
13458;DHT22;6801;53.018;11.560;2023-04-25T02:25:01;10.40;66.40
13458;DHT22;6801;53.018;11.560;2023-04-25T02:27:31;10.40;66.50
13458;DHT22;6801;53.018;11.560;2023-04-25T02:29:58;10.30;66.70
13458;DHT22;6801;53.018;11.560;2023-04-25T02:32:25;10.40;66.70
13458;DHT22;6801;53.018;11.560;2023-04-25T02:34:52;10.40;66.80
13458;DHT22;6801;53.018;11.560;2023-04-25T02:37:20;10.40;66.80
13458;DHT22;6801;53.018;11.560;2023-04-25T02:39:46;10.30;66.80
13458;DHT22;6801;53.018;11.560;2023-04-25T02:42:13;10.30;66.90
13458;DHT22;6801;53.018;11.560;2023-04-25T02:44:42;10.30;66.90
13458;DHT22;6801;53.018;11.560;2023-04-25T02:47:09;10.40;67.00
13458;DHT22;6801;53.018;11.560;2023-04-25T02:49:35;10.30;66.90
13458;DHT22;6801;53.018;11.560;2023-04-25T02:52:02;10.30;67.10
13458;DHT22;6801;53.018;11.560;2023-04-25T02:54:30;10.30;67.20
13458;DHT22;6801;53.018;11.560;2023-04-25T02:56:57;10.30;67.20
13458;DHT22;6801;53.018;11.560;2023-04-25T02:59:28;10.30;67.20
13458;DHT22;6801;53.018;11.560;2023-04-25T03:01:57;10.30;67.30
13458;DHT22;6801;53.018;11.560;2023-04-25T03:04:24;10.30;67.30
13458;DHT22;6801;53.018;11.560;2023-04-25T03:06:51;10.20;67.40
13458;DHT22;6801;53.018;11.560;2023-04-25T03:09:20;10.30;67.50
13458;DHT22;6801;53.018;11.560;2023-04-25T03:11:48;10.20;67.40
13458;DHT22;6801;53.018;11.560;2023-04-25T03:14:14;10.20;67.60
13458;DHT22;6801;53.018;11.560;2023-04-25T03:16:41;10.20;67.60
13458;DHT22;6801;53.018;11.560;2023-04-25T03:19:10;10.30;68.20
13458;DHT22;6801;53.018;11.560;2023-04-25T03:21:37;10.30;68.00
13458;DHT22;6801;53.018;11.560;2023-04-25T03:24:05;10.20;67.90
13458;DHT22;6801;53.018;11.560;2023-04-25T03:26:32;10.20;68.00
13458;DHT22;6801;53.018;11.560;2023-04-25T03:28:59;10.20;68.20
13458;DHT22;6801;53.018;11.560;2023-04-25T03:31:26;10.20;68.20
13458;DHT22;6801;53.018;11.560;2023-04-25T03:33:54;10.20;68.80
13458;DHT22;6801;53.018;11.560;2023-04-25T03:36:24;10.10;68.70
13458;DHT22;6801;53.018;11.560;2023-04-25T03:38:50;10.10;68.80
13458;DHT22;6801;53.018;11.560;2023-04-25T03:41:19;10.10;68.80
13458;DHT22;6801;53.018;11.560;2023-04-25T03:43:57;10.10;68.70
13458;DHT22;6801;53.018;11.560;2023-04-25T03:46:24;10.00;69.10
13458;DHT22;6801;53.018;11.560;2023-04-25T03:48:51;10.00;68.90
13458;DHT22;6801;53.018;11.560;2023-04-25T03:51:21;10.10;68.80
13458;DHT22;6801;53.018;11.560;2023-04-25T03:53:49;10.00;68.70
13458;DHT22;6801;53.018;11.560;2023-04-25T03:56:19;10.00;68.60
13458;DHT22;6801;53.018;11.560;2023-04-25T03:58:53;10.00;68.60
13458;DHT22;6801;53.018;11.560;2023-04-25T04:01:22;10.00;68.60
13458;DHT22;6801;53.018;11.560;2023-04-25T04:03:49;10.00;68.60
13458;DHT22;6801;53.018;11.560;2023-04-25T04:06:16;10.00;68.50
13458;DHT22;6801;53.018;11.560;2023-04-25T04:08:47;10.00;68.60
13458;DHT22;6801;53.018;11.560;2023-04-25T04:11:16;9.90;68.60
13458;DHT22;6801;53.018;11.560;2023-04-25T04:13:43;9.90;68.50
13458;DHT22;6801;53.018;11.560;2023-04-25T04:16:10;9.90;68.40
13458;DHT22;6801;53.018;11.560;2023-04-25T04:18:37;9.90;68.50
13458;DHT22;6801;53.018;11.560;2023-04-25T04:21:04;9.90;68.40
13458;DHT22;6801;53.018;11.560;2023-04-25T04:23:34;9.80;68.00
13458;DHT22;6801;53.018;11.560;2023-04-25T04:26:01;9.80;68.00
13458;DHT22;6801;53.018;11.560;2023-04-25T04:28:41;9.80;68.20
13458;DHT22;6801;53.018;11.560;2023-04-25T04:31:22;9.70;68.20
13458;DHT22;6801;53.018;11.560;2023-04-25T04:33:50;9.80;68.10
13458;DHT22;6801;53.018;11.560;2023-04-25T04:36:18;9.70;68.10
13458;DHT22;6801;53.018;11.560;2023-04-25T04:38:48;9.70;68.10
13458;DHT22;6801;53.018;11.560;2023-04-25T04:41:32;9.70;68.00
13458;DHT22;6801;53.018;11.560;2023-04-25T04:44:11;9.70;67.90
13458;DHT22;6801;53.018;11.560;2023-04-25T04:46:44;9.70;67.90
13458;DHT22;6801;53.018;11.560;2023-04-25T04:49:32;9.70;67.90
13458;DHT22;6801;53.018;11.560;2023-04-25T04:52:25;9.60;67.20
13458;DHT22;6801;53.018;11.560;2023-04-25T04:55:00;9.60;67.50
13458;DHT22;6801;53.018;11.560;2023-04-25T04:57:44;9.60;67.30
13458;DHT22;6801;53.018;11.560;2023-04-25T05:00:13;9.60;67.50
13458;DHT22;6801;53.018;11.560;2023-04-25T05:02:59;9.60;67.00
13458;DHT22;6801;53.018;11.560;2023-04-25T05:05:47;9.60;67.10
13458;DHT22;6801;53.018;11.560;2023-04-25T05:08:32;9.60;66.90
13458;DHT22;6801;53.018;11.560;2023-04-25T05:11:12;9.50;66.60
13458;DHT22;6801;53.018;11.560;2023-04-25T05:13:56;9.50;66.80
13458;DHT22;6801;53.018;11.560;2023-04-25T05:16:47;9.60;66.90
13458;DHT22;6801;53.018;11.560;2023-04-25T05:19:40;9.60;66.60
13458;DHT22;6801;53.018;11.560;2023-04-25T05:22:39;9.60;66.30
13458;DHT22;6801;53.018;11.560;2023-04-25T05:25:12;9.60;66.10
13458;DHT22;6801;53.018;11.560;2023-04-25T05:27:54;9.50;66.30
13458;DHT22;6801;53.018;11.560;2023-04-25T05:30:39;9.50;65.80
13458;DHT22;6801;53.018;11.560;2023-04-25T05:33:12;9.50;66.10
13458;DHT22;6801;53.018;11.560;2023-04-25T05:35:39;9.50;66.30
13458;DHT22;6801;53.018;11.560;2023-04-25T05:38:06;9.50;65.80
13458;DHT22;6801;53.018;11.560;2023-04-25T05:41:08;9.50;66.20
13458;DHT22;6801;53.018;11.560;2023-04-25T05:43:58;9.50;65.20
13458;DHT22;6801;53.018;11.560;2023-04-25T05:46:40;9.60;65.30
13458;DHT22;6801;53.018;11.560;2023-04-25T05:49:29;9.60;64.40
13458;DHT22;6801;53.018;11.560;2023-04-25T05:52:04;9.70;65.10
13458;DHT22;6801;53.018;11.560;2023-04-25T05:54:48;9.60;63.80
13458;DHT22;6801;53.018;11.560;2023-04-25T05:57:22;9.70;64.40
13458;DHT22;6801;53.018;11.560;2023-04-25T05:59:49;9.70;64.50
13458;DHT22;6801;53.018;11.560;2023-04-25T06:02:17;9.80;63.80
13458;DHT22;6801;53.018;11.560;2023-04-25T06:04:45;9.90;62.50
13458;DHT22;6801;53.018;11.560;2023-04-25T06:07:12;9.90;61.70
13458;DHT22;6801;53.018;11.560;2023-04-25T06:09:39;10.00;62.80
13458;DHT22;6801;53.018;11.560;2023-04-25T06:12:06;10.00;61.20
13458;DHT22;6801;53.018;11.560;2023-04-25T06:14:34;10.00;60.70
13458;DHT22;6801;53.018;11.560;2023-04-25T06:17:01;10.00;61.30
13458;DHT22;6801;53.018;11.560;2023-04-25T06:19:32;10.00;60.30
13458;DHT22;6801;53.018;11.560;2023-04-25T06:22:01;10.00;60.80
13458;DHT22;6801;53.018;11.560;2023-04-25T06:24:29;10.10;59.50
13458;DHT22;6801;53.018;11.560;2023-04-25T06:26:56;10.10;60.10
13458;DHT22;6801;53.018;11.560;2023-04-25T06:29:23;10.20;59.80
13458;DHT22;6801;53.018;11.560;2023-04-25T06:31:50;10.10;59.00
13458;DHT22;6801;53.018;11.560;2023-04-25T06:34:17;10.20;59.10
13458;DHT22;6801;53.018;11.560;2023-04-25T06:36:45;10.20;57.60
13458;DHT22;6801;53.018;11.560;2023-04-25T06:39:16;10.20;58.80
13458;DHT22;6801;53.018;11.560;2023-04-25T06:41:43;10.30;58.30
13458;DHT22;6801;53.018;11.560;2023-04-25T06:44:29;10.30;58.40
13458;DHT22;6801;53.018;11.560;2023-04-25T06:46:57;10.30;57.30
13458;DHT22;6801;53.018;11.560;2023-04-25T06:49:24;10.30;57.70
13458;DHT22;6801;53.018;11.560;2023-04-25T06:51:51;10.40;58.50
13458;DHT22;6801;53.018;11.560;2023-04-25T06:54:19;10.40;58.10
13458;DHT22;6801;53.018;11.560;2023-04-25T06:56:56;10.40;57.20
13458;DHT22;6801;53.018;11.560;2023-04-25T06:59:23;10.40;56.00
13458;DHT22;6801;53.018;11.560;2023-04-25T07:01:50;10.50;54.30
13458;DHT22;6801;53.018;11.560;2023-04-25T07:04:20;10.50;55.60
13458;DHT22;6801;53.018;11.560;2023-04-25T07:06:58;10.50;55.90
13458;DHT22;6801;53.018;11.560;2023-04-25T07:09:41;10.50;56.20
13458;DHT22;6801;53.018;11.560;2023-04-25T07:12:08;10.50;55.20
13458;DHT22;6801;53.018;11.560;2023-04-25T07:14:35;10.50;54.10
13458;DHT22;6801;53.018;11.560;2023-04-25T07:17:03;10.50;53.50
13458;DHT22;6801;53.018;11.560;2023-04-25T07:19:32;10.50;53.30
13458;DHT22;6801;53.018;11.560;2023-04-25T07:22:01;10.60;52.50
13458;DHT22;6801;53.018;11.560;2023-04-25T07:24:29;10.50;52.20
13458;DHT22;6801;53.018;11.560;2023-04-25T07:26:58;10.60;52.20
13458;DHT22;6801;53.018;11.560;2023-04-25T07:29:39;10.60;52.90
13458;DHT22;6801;53.018;11.560;2023-04-25T07:32:07;10.70;52.40
13458;DHT22;6801;53.018;11.560;2023-04-25T07:34:35;10.60;51.20
13458;DHT22;6801;53.018;11.560;2023-04-25T07:37:04;10.60;52.00
13458;DHT22;6801;53.018;11.560;2023-04-25T07:39:39;10.70;52.90
13458;DHT22;6801;53.018;11.560;2023-04-25T07:42:07;10.70;52.40
13458;DHT22;6801;53.018;11.560;2023-04-25T07:44:34;10.90;53.20
13458;DHT22;6801;53.018;11.560;2023-04-25T07:47:05;10.90;52.30
13458;DHT22;6801;53.018;11.560;2023-04-25T07:49:33;11.00;52.60
13458;DHT22;6801;53.018;11.560;2023-04-25T07:52:01;11.00;51.80
13458;DHT22;6801;53.018;11.560;2023-04-25T07:54:28;11.00;51.50
13458;DHT22;6801;53.018;11.560;2023-04-25T07:57:02;11.00;50.70
13458;DHT22;6801;53.018;11.560;2023-04-25T07:59:31;11.00;50.40
13458;DHT22;6801;53.018;11.560;2023-04-25T08:02:01;10.90;49.80
13458;DHT22;6801;53.018;11.560;2023-04-25T08:04:28;10.90;51.50
13458;DHT22;6801;53.018;11.560;2023-04-25T08:07:01;10.90;51.40
13458;DHT22;6801;53.018;11.560;2023-04-25T08:09:31;10.80;51.50
13458;DHT22;6801;53.018;11.560;2023-04-25T08:12:02;10.90;52.30
13458;DHT22;6801;53.018;11.560;2023-04-25T08:14:33;10.90;52.10
13458;DHT22;6801;53.018;11.560;2023-04-25T08:17:03;10.90;51.60
13458;DHT22;6801;53.018;11.560;2023-04-25T08:19:32;11.00;52.30
13458;DHT22;6801;53.018;11.560;2023-04-25T08:21:59;10.90;51.20
13458;DHT22;6801;53.018;11.560;2023-04-25T08:24:35;10.90;50.00
13458;DHT22;6801;53.018;11.560;2023-04-25T08:27:02;10.90;50.30
13458;DHT22;6801;53.018;11.560;2023-04-25T08:29:30;11.00;52.00
13458;DHT22;6801;53.018;11.560;2023-04-25T08:31:58;11.10;52.00
13458;DHT22;6801;53.018;11.560;2023-04-25T08:34:25;11.10;51.20
13458;DHT22;6801;53.018;11.560;2023-04-25T08:36:52;11.20;52.10
13458;DHT22;6801;53.018;11.560;2023-04-25T08:39:29;11.30;52.10
13458;DHT22;6801;53.018;11.560;2023-04-25T08:42:15;11.30;49.70
13458;DHT22;6801;53.018;11.560;2023-04-25T08:44:43;11.30;49.20
13458;DHT22;6801;53.018;11.560;2023-04-25T08:47:12;11.20;50.40
13458;DHT22;6801;53.018;11.560;2023-04-25T08:49:45;11.30;51.50
13458;DHT22;6801;53.018;11.560;2023-04-25T08:52:13;11.40;52.10
13458;DHT22;6801;53.018;11.560;2023-04-25T08:54:43;11.40;50.60
13458;DHT22;6801;53.018;11.560;2023-04-25T08:57:14;11.40;50.30
13458;DHT22;6801;53.018;11.560;2023-04-25T08:59:42;11.40;50.60
13458;DHT22;6801;53.018;11.560;2023-04-25T09:02:12;11.30;50.90
13458;DHT22;6801;53.018;11.560;2023-04-25T09:04:45;11.40;51.60
13458;DHT22;6801;53.018;11.560;2023-04-25T09:07:12;11.40;51.80
13458;DHT22;6801;53.018;11.560;2023-04-25T09:09:41;11.40;51.40
13458;DHT22;6801;53.018;11.560;2023-04-25T09:12:09;11.40;50.70
13458;DHT22;6801;53.018;11.560;2023-04-25T09:14:36;11.50;51.40
13458;DHT22;6801;53.018;11.560;2023-04-25T09:17:07;11.60;50.60
13458;DHT22;6801;53.018;11.560;2023-04-25T09:19:41;11.50;48.90
13458;DHT22;6801;53.018;11.560;2023-04-25T09:22:18;11.40;50.20
13458;DHT22;6801;53.018;11.560;2023-04-25T09:24:47;11.40;49.80
13458;DHT22;6801;53.018;11.560;2023-04-25T09:27:19;11.40;50.30
13458;DHT22;6801;53.018;11.560;2023-04-25T09:29:58;11.40;51.20
13458;DHT22;6801;53.018;11.560;2023-04-25T09:32:27;11.40;51.40
13458;DHT22;6801;53.018;11.560;2023-04-25T09:34:57;11.50;51.70
13458;DHT22;6801;53.018;11.560;2023-04-25T09:37:28;11.60;51.40
13458;DHT22;6801;53.018;11.560;2023-04-25T09:40:33;11.60;51.00
13458;DHT22;6801;53.018;11.560;2023-04-25T09:43:14;11.70;50.90
13458;DHT22;6801;53.018;11.560;2023-04-25T09:45:42;11.70;51.10
13458;DHT22;6801;53.018;11.560;2023-04-25T09:48:12;11.70;51.00
13458;DHT22;6801;53.018;11.560;2023-04-25T09:50:45;11.80;49.90
13458;DHT22;6801;53.018;11.560;2023-04-25T09:53:12;11.70;50.30
13458;DHT22;6801;53.018;11.560;2023-04-25T09:56:04;11.80;51.00
13458;DHT22;6801;53.018;11.560;2023-04-25T09:58:33;11.90;51.60
13458;DHT22;6801;53.018;11.560;2023-04-25T10:01:01;12.00;51.70
13458;DHT22;6801;53.018;11.560;2023-04-25T10:03:39;12.00;50.90
13458;DHT22;6801;53.018;11.560;2023-04-25T10:06:28;12.10;49.40
13458;DHT22;6801;53.018;11.560;2023-04-25T10:08:56;12.00;48.20
13458;DHT22;6801;53.018;11.560;2023-04-25T10:11:24;12.20;49.40
13458;DHT22;6801;53.018;11.560;2023-04-25T10:13:52;12.20;49.10
13458;DHT22;6801;53.018;11.560;2023-04-25T10:16:20;12.20;50.20
13458;DHT22;6801;53.018;11.560;2023-04-25T10:18:48;12.20;48.50
13458;DHT22;6801;53.018;11.560;2023-04-25T10:21:17;12.30;49.90
13458;DHT22;6801;53.018;11.560;2023-04-25T10:23:47;12.50;48.30
13458;DHT22;6801;53.018;11.560;2023-04-25T10:26:15;12.50;49.80
13458;DHT22;6801;53.018;11.560;2023-04-25T10:28:57;12.60;48.90
13458;DHT22;6801;53.018;11.560;2023-04-25T10:31:24;12.70;48.50
13458;DHT22;6801;53.018;11.560;2023-04-25T10:33:52;12.60;48.00
13458;DHT22;6801;53.018;11.560;2023-04-25T10:36:21;12.70;47.10
13458;DHT22;6801;53.018;11.560;2023-04-25T10:38:50;12.70;45.70
13458;DHT22;6801;53.018;11.560;2023-04-25T10:41:18;12.70;46.00
13458;DHT22;6801;53.018;11.560;2023-04-25T10:43:46;12.70;47.20
13458;DHT22;6801;53.018;11.560;2023-04-25T10:46:16;12.80;47.80
13458;DHT22;6801;53.018;11.560;2023-04-25T10:48:47;12.80;47.90
13458;DHT22;6801;53.018;11.560;2023-04-25T10:51:20;12.80;48.70
13458;DHT22;6801;53.018;11.560;2023-04-25T10:53:58;12.70;47.50
13458;DHT22;6801;53.018;11.560;2023-04-25T10:56:27;12.80;48.10
13458;DHT22;6801;53.018;11.560;2023-04-25T10:59:04;12.80;46.90
13458;DHT22;6801;53.018;11.560;2023-04-25T11:01:36;12.60;46.60
13458;DHT22;6801;53.018;11.560;2023-04-25T11:04:03;12.60;46.90
13458;DHT22;6801;53.018;11.560;2023-04-25T11:06:37;12.60;47.80
13458;DHT22;6801;53.018;11.560;2023-04-25T11:09:12;12.70;47.90
13458;DHT22;6801;53.018;11.560;2023-04-25T11:11:39;12.50;45.70
13458;DHT22;6801;53.018;11.560;2023-04-25T11:14:06;12.40;47.80
13458;DHT22;6801;53.018;11.560;2023-04-25T11:16:33;12.50;47.50
13458;DHT22;6801;53.018;11.560;2023-04-25T11:19:02;12.40;46.10
13458;DHT22;6801;53.018;11.560;2023-04-25T11:21:30;12.50;48.40
13458;DHT22;6801;53.018;11.560;2023-04-25T11:23:59;12.50;47.00
13458;DHT22;6801;53.018;11.560;2023-04-25T11:26:28;12.50;47.80
13458;DHT22;6801;53.018;11.560;2023-04-25T11:29:00;12.60;48.70
13458;DHT22;6801;53.018;11.560;2023-04-25T11:31:27;12.70;47.70
13458;DHT22;6801;53.018;11.560;2023-04-25T11:33:54;12.60;45.90
13458;DHT22;6801;53.018;11.560;2023-04-25T11:36:23;12.40;44.70
13458;DHT22;6801;53.018;11.560;2023-04-25T11:38:52;12.40;47.40
13458;DHT22;6801;53.018;11.560;2023-04-25T11:41:19;12.40;47.90
13458;DHT22;6801;53.018;11.560;2023-04-25T11:43:49;12.30;46.90
13458;DHT22;6801;53.018;11.560;2023-04-25T11:46:17;12.40;48.10
13458;DHT22;6801;53.018;11.560;2023-04-25T11:48:45;12.50;48.10
13458;DHT22;6801;53.018;11.560;2023-04-25T11:51:13;12.50;48.60
13458;DHT22;6801;53.018;11.560;2023-04-25T11:53:41;12.50;48.80
13458;DHT22;6801;53.018;11.560;2023-04-25T11:56:09;12.60;49.60
13458;DHT22;6801;53.018;11.560;2023-04-25T11:58:56;12.70;49.50
13458;DHT22;6801;53.018;11.560;2023-04-25T12:01:28;12.90;49.20
13458;DHT22;6801;53.018;11.560;2023-04-25T12:03:55;12.80;47.70
13458;DHT22;6801;53.018;11.560;2023-04-25T12:06:26;12.70;47.60
13458;DHT22;6801;53.018;11.560;2023-04-25T12:09:01;12.70;48.20
13458;DHT22;6801;53.018;11.560;2023-04-25T12:11:30;12.50;49.10
13458;DHT22;6801;53.018;11.560;2023-04-25T12:14:03;12.50;49.40
13458;DHT22;6801;53.018;11.560;2023-04-25T12:16:40;12.30;49.70
13458;DHT22;6801;53.018;11.560;2023-04-25T12:19:07;12.40;50.10
13458;DHT22;6801;53.018;11.560;2023-04-25T12:21:34;12.40;49.70
13458;DHT22;6801;53.018;11.560;2023-04-25T12:24:10;12.30;49.70
13458;DHT22;6801;53.018;11.560;2023-04-25T12:26:47;12.30;49.80
13458;DHT22;6801;53.018;11.560;2023-04-25T12:29:23;12.30;49.50
13458;DHT22;6801;53.018;11.560;2023-04-25T12:31:51;12.40;50.10
13458;DHT22;6801;53.018;11.560;2023-04-25T12:34:18;12.40;49.60
13458;DHT22;6801;53.018;11.560;2023-04-25T12:36:46;12.40;49.90
13458;DHT22;6801;53.018;11.560;2023-04-25T12:39:16;12.50;49.90
13458;DHT22;6801;53.018;11.560;2023-04-25T12:41:43;12.50;49.80
13458;DHT22;6801;53.018;11.560;2023-04-25T12:44:11;12.50;49.60
13458;DHT22;6801;53.018;11.560;2023-04-25T12:46:40;12.50;47.50
13458;DHT22;6801;53.018;11.560;2023-04-25T12:49:08;12.50;48.60
13458;DHT22;6801;53.018;11.560;2023-04-25T12:51:35;12.50;48.10
13458;DHT22;6801;53.018;11.560;2023-04-25T12:54:03;12.50;48.80
13458;DHT22;6801;53.018;11.560;2023-04-25T12:56:31;12.60;49.20
13458;DHT22;6801;53.018;11.560;2023-04-25T12:58:58;12.80;47.90
13458;DHT22;6801;53.018;11.560;2023-04-25T13:01:25;12.80;48.30
13458;DHT22;6801;53.018;11.560;2023-04-25T13:03:53;12.90;48.80
13458;DHT22;6801;53.018;11.560;2023-04-25T13:06:22;13.00;49.50
13458;DHT22;6801;53.018;11.560;2023-04-25T13:08:49;13.00;47.80
13458;DHT22;6801;53.018;11.560;2023-04-25T13:11:16;13.10;48.50
13458;DHT22;6801;53.018;11.560;2023-04-25T13:13:43;13.30;48.50
13458;DHT22;6801;53.018;11.560;2023-04-25T13:16:10;13.30;47.30
13458;DHT22;6801;53.018;11.560;2023-04-25T13:18:40;13.30;47.50
13458;DHT22;6801;53.018;11.560;2023-04-25T13:21:09;13.30;47.50
13458;DHT22;6801;53.018;11.560;2023-04-25T13:23:36;13.30;47.10
13458;DHT22;6801;53.018;11.560;2023-04-25T13:26:03;13.30;47.50
13458;DHT22;6801;53.018;11.560;2023-04-25T13:28:30;13.10;47.30
13458;DHT22;6801;53.018;11.560;2023-04-25T13:30:57;13.00;48.40
13458;DHT22;6801;53.018;11.560;2023-04-25T13:33:25;13.00;49.10
13458;DHT22;6801;53.018;11.560;2023-04-25T13:35:52;12.90;49.40
13458;DHT22;6801;53.018;11.560;2023-04-25T13:38:24;12.90;49.20
13458;DHT22;6801;53.018;11.560;2023-04-25T13:40:51;12.70;49.10
13458;DHT22;6801;53.018;11.560;2023-04-25T13:43:19;12.70;49.80
13458;DHT22;6801;53.018;11.560;2023-04-25T13:45:47;12.70;50.30
13458;DHT22;6801;53.018;11.560;2023-04-25T13:48:14;12.70;49.80
13458;DHT22;6801;53.018;11.560;2023-04-25T13:50:41;12.60;50.00
13458;DHT22;6801;53.018;11.560;2023-04-25T13:53:08;12.60;50.50
13458;DHT22;6801;53.018;11.560;2023-04-25T13:55:36;12.60;51.10
13458;DHT22;6801;53.018;11.560;2023-04-25T13:58:04;12.60;51.30
13458;DHT22;6801;53.018;11.560;2023-04-25T14:00:34;12.70;51.30
13458;DHT22;6801;53.018;11.560;2023-04-25T14:03:02;12.70;51.40
13458;DHT22;6801;53.018;11.560;2023-04-25T14:05:33;12.70;51.50
13458;DHT22;6801;53.018;11.560;2023-04-25T14:08:04;12.80;51.40
13458;DHT22;6801;53.018;11.560;2023-04-25T14:10:31;12.80;51.20
13458;DHT22;6801;53.018;11.560;2023-04-25T14:13:00;12.80;51.20
13458;DHT22;6801;53.018;11.560;2023-04-25T14:15:29;12.80;51.40
13458;DHT22;6801;53.018;11.560;2023-04-25T14:17:56;12.90;51.70
13458;DHT22;6801;53.018;11.560;2023-04-25T14:20:23;12.90;51.80
13458;DHT22;6801;53.018;11.560;2023-04-25T14:22:50;12.90;51.30
13458;DHT22;6801;53.018;11.560;2023-04-25T14:25:19;13.00;50.50
13458;DHT22;6801;53.018;11.560;2023-04-25T14:27:46;13.10;49.60
13458;DHT22;6801;53.018;11.560;2023-04-25T14:30:17;13.30;48.20
13458;DHT22;6801;53.018;11.560;2023-04-25T14:32:44;13.30;48.80
13458;DHT22;6801;53.018;11.560;2023-04-25T14:35:11;13.30;46.90
13458;DHT22;6801;53.018;11.560;2023-04-25T14:37:38;13.30;47.70
13458;DHT22;6801;53.018;11.560;2023-04-25T14:40:07;13.20;47.30
13458;DHT22;6801;53.018;11.560;2023-04-25T14:42:36;13.10;47.80
13458;DHT22;6801;53.018;11.560;2023-04-25T14:45:03;13.00;47.00
13458;DHT22;6801;53.018;11.560;2023-04-25T14:47:33;13.00;48.40
13458;DHT22;6801;53.018;11.560;2023-04-25T14:50:00;12.90;48.30
13458;DHT22;6801;53.018;11.560;2023-04-25T14:52:27;13.00;48.70
13458;DHT22;6801;53.018;11.560;2023-04-25T14:54:54;12.90;48.00
13458;DHT22;6801;53.018;11.560;2023-04-25T14:57:21;12.90;48.40
13458;DHT22;6801;53.018;11.560;2023-04-25T14:59:48;13.00;47.80
13458;DHT22;6801;53.018;11.560;2023-04-25T15:02:15;13.00;48.50
13458;DHT22;6801;53.018;11.560;2023-04-25T15:04:43;12.90;46.20
13458;DHT22;6801;53.018;11.560;2023-04-25T15:07:10;13.00;46.90
13458;DHT22;6801;53.018;11.560;2023-04-25T15:09:37;12.80;46.60
13458;DHT22;6801;53.018;11.560;2023-04-25T15:12:04;12.80;46.70
13458;DHT22;6801;53.018;11.560;2023-04-25T15:14:31;12.80;48.00
13458;DHT22;6801;53.018;11.560;2023-04-25T15:16:59;12.90;48.40
13458;DHT22;6801;53.018;11.560;2023-04-25T15:19:26;12.80;46.70
13458;DHT22;6801;53.018;11.560;2023-04-25T15:21:55;13.00;48.30
13458;DHT22;6801;53.018;11.560;2023-04-25T15:24:22;13.00;45.30
13458;DHT22;6801;53.018;11.560;2023-04-25T15:26:49;13.00;47.10
13458;DHT22;6801;53.018;11.560;2023-04-25T15:29:16;13.20;46.80
13458;DHT22;6801;53.018;11.560;2023-04-25T15:31:43;13.20;45.70
13458;DHT22;6801;53.018;11.560;2023-04-25T15:34:11;13.30;47.20
13458;DHT22;6801;53.018;11.560;2023-04-25T15:36:38;13.40;47.10
13458;DHT22;6801;53.018;11.560;2023-04-25T15:39:06;13.50;47.50
13458;DHT22;6801;53.018;11.560;2023-04-25T15:41:33;13.60;47.80
13458;DHT22;6801;53.018;11.560;2023-04-25T15:44:00;13.60;47.30
13458;DHT22;6801;53.018;11.560;2023-04-25T15:46:27;13.40;45.00
13458;DHT22;6801;53.018;11.560;2023-04-25T15:48:55;13.40;45.90
13458;DHT22;6801;53.018;11.560;2023-04-25T15:51:22;13.40;45.70